Time;durP1;ratioP1;P1;durP2;ratioP2;P2;SDS_P1;SDS_P2;PMS_P1;PMS_P2;Temp;Humidity;BMP_temperature;BMP_pressure;BME280_temperature;BME280_humidity;BME280_pressure;Samples;Min_cycle;Max_cycle;Signal;HPM_P1;HPM_P2
2021/09/26 00:01:46;;;;;;;4.57;3.60;;;23.00;99.90;;;;;;4974368;28;20109;-59
2021/09/26 00:04:12;;;;;;;4.65;3.63;;;23.10;99.90;;;;;;4971918;28;20034;-60
2021/09/26 00:06:38;;;;;;;3.88;3.47;;;23.00;99.90;;;;;;4973006;28;20022;-63
2021/09/26 00:09:04;;;;;;;4.13;3.53;;;23.00;99.90;;;;;;4974107;28;20018;-59
2021/09/26 00:11:31;;;;;;;4.05;3.65;;;23.00;99.90;;;;;;4974661;28;20086;-60
2021/09/26 00:13:57;;;;;;;4.90;3.55;;;23.00;99.90;;;;;;4974102;28;20035;-60
2021/09/26 00:16:23;;;;;;;4.45;3.70;;;23.00;99.90;;;;;;4970779;28;20027;-58
2021/09/26 00:18:49;;;;;;;5.13;3.45;;;23.00;99.90;;;;;;4971658;28;20053;-59
2021/09/26 00:21:16;;;;;;;3.70;3.20;;;23.00;99.90;;;;;;4973721;28;20479;-60
2021/09/26 00:23:42;;;;;;;4.82;3.40;;;23.00;99.90;;;;;;4974034;28;20101;-58
2021/09/26 00:26:08;;;;;;;5.82;3.75;;;23.00;99.90;;;;;;4974137;28;20069;-60
2021/09/26 00:28:35;;;;;;;3.80;3.50;;;23.00;99.90;;;;;;4974417;28;20078;-61
2021/09/26 00:31:03;;;;;;;4.07;3.60;;;23.00;99.90;;;;;;4974432;28;20039;-58
2021/09/26 00:33:29;;;;;;;5.70;3.60;;;23.00;99.90;;;;;;4973926;28;20034;-57
2021/09/26 00:35:55;;;;;;;4.35;3.50;;;23.00;99.90;;;;;;4973447;28;20807;-57
2021/09/26 00:38:21;;;;;;;4.93;3.53;;;23.00;99.90;;;;;;4956226;28;20062;-58
2021/09/26 00:40:48;;;;;;;4.53;3.38;;;23.00;99.90;;;;;;4972704;28;20077;-58
2021/09/26 00:43:14;;;;;;;4.32;3.63;;;23.00;99.90;;;;;;4973853;28;20027;-59
2021/09/26 00:45:40;;;;;;;6.07;3.70;;;22.90;99.90;;;;;;4972383;28;20107;-57
2021/09/26 00:48:06;;;;;;;4.10;3.30;;;23.00;99.90;;;;;;4971470;28;20030;-58
2021/09/26 00:50:31;;;;;;;4.00;3.60;;;22.90;99.90;;;;;;4971764;28;20489;-59
2021/09/26 00:52:57;;;;;;;3.88;3.17;;;22.90;99.90;;;;;;4972696;28;20039;-58
2021/09/26 00:55:23;;;;;;;4.78;3.78;;;22.90;99.90;;;;;;4973326;28;20031;-58
2021/09/26 00:57:49;;;;;;;4.75;3.58;;;23.00;99.90;;;;;;4973370;28;20110;-58
2021/09/26 01:00:18;;;;;;;4.90;3.78;;;22.90;99.90;;;;;;4973456;28;20041;-58
2021/09/26 01:02:44;;;;;;;3.85;3.20;;;22.90;99.90;;;;;;4973217;28;20479;-57
2021/09/26 01:05:13;;;;;;;5.97;3.67;;;22.90;99.90;;;;;;4973522;28;20130;-58
2021/09/26 01:07:56;;;;;;;4.32;3.92;;;22.90;99.90;;;;;;4973340;28;20049;-58
2021/09/26 01:10:40;;;;;;;4.15;3.75;;;22.90;99.90;;;;;;4973422;28;20379;-58
2021/09/26 01:13:17;;;;;;;3.72;3.42;;;22.90;99.90;;;;;;4973239;28;20035;-58
2021/09/26 01:15:55;;;;;;;4.53;3.83;;;22.90;99.90;;;;;;4973027;28;20483;-58
2021/09/26 01:18:33;;;;;;;4.38;3.60;;;22.90;99.90;;;;;;4955963;28;20066;-58
2021/09/26 01:21:09;;;;;;;5.10;3.88;;;22.90;99.90;;;;;;4972864;28;20073;-58
2021/09/26 01:24:13;;;;;;;3.78;3.40;;;22.90;99.90;;;;;;4973019;28;20022;-58
2021/09/26 01:26:43;;;;;;;4.45;3.90;;;22.90;99.90;;;;;;4972888;28;20034;-62
2021/09/26 01:29:32;;;;;;;4.30;3.67;;;22.90;99.90;;;;;;4972984;28;20031;-62
2021/09/26 01:32:03;;;;;;;4.38;3.83;;;22.90;99.90;;;;;;4969671;28;20118;-60
2021/09/26 01:34:33;;;;;;;4.28;3.53;;;22.90;99.90;;;;;;4972814;28;20043;-61
2021/09/26 01:37:04;;;;;;;4.28;3.60;;;22.90;99.90;;;;;;4972680;28;20019;-60
2021/09/26 01:39:39;;;;;;;4.25;3.63;;;22.80;99.90;;;;;;4973205;28;20026;-59
2021/09/26 01:42:15;;;;;;;4.53;3.70;;;22.80;99.90;;;;;;4972830;28;20030;-58
2021/09/26 01:44:49;;;;;;;4.90;3.63;;;22.80;99.90;;;;;;4972688;28;20467;-58
2021/09/26 01:47:19;;;;;;;4.78;3.83;;;22.80;99.90;;;;;;4972753;28;20033;-58
2021/09/26 01:49:50;;;;;;;4.32;3.65;;;22.80;99.90;;;;;;4972502;28;20022;-61
2021/09/26 01:52:21;;;;;;;4.43;3.47;;;22.80;99.90;;;;;;4972561;28;20019;-58
2021/09/26 01:54:48;;;;;;;4.60;3.70;;;22.80;99.90;;;;;;4972450;28;20431;-59
2021/09/26 01:57:20;;;;;;;4.88;3.28;;;22.80;99.90;;;;;;4972685;28;20018;-58
2021/09/26 01:59:55;;;;;;;4.43;3.28;;;22.80;99.90;;;;;;4955078;28;20387;-58
2021/09/26 02:02:22;;;;;;;4.43;3.88;;;22.80;99.90;;;;;;4972587;28;20078;-62
2021/09/26 02:04:52;;;;;;;4.38;3.95;;;22.80;99.90;;;;;;4972277;28;20502;-61
2021/09/26 02:07:20;;;;;;;3.97;3.58;;;22.80;99.90;;;;;;4972519;28;20037;-58
2021/09/26 02:09:47;;;;;;;4.55;3.60;;;22.80;99.90;;;;;;4954980;28;20117;-58
2021/09/26 02:12:14;;;;;;;4.05;3.65;;;22.80;99.90;;;;;;4972448;28;20487;-61
2021/09/26 02:14:41;;;;;;;3.97;3.58;;;22.80;99.90;;;;;;4972270;28;20113;-60
2021/09/26 02:17:09;;;;;;;4.80;3.67;;;22.80;99.90;;;;;;4972409;28;20023;-62
2021/09/26 02:19:36;;;;;;;4.22;3.80;;;22.80;99.90;;;;;;4972199;28;20031;-58
2021/09/26 02:22:05;;;;;;;6.38;4.20;;;22.80;99.90;;;;;;4973271;28;20023;-58
2021/09/26 02:24:33;;;;;;;6.28;3.88;;;22.80;99.90;;;;;;4972619;28;20509;-59
2021/09/26 02:26:58;;;;;;;5.95;3.58;;;22.80;99.90;;;;;;4972292;28;20105;-58
2021/09/26 02:29:24;;;;;;;4.82;3.90;;;22.80;99.90;;;;;;4972379;28;20567;-57
2021/09/26 02:31:50;;;;;;;4.40;3.72;;;22.80;99.90;;;;;;4972099;28;20031;-58
2021/09/26 02:34:15;;;;;;;4.68;4.13;;;22.80;99.90;;;;;;4972166;28;20046;-58
2021/09/26 02:36:41;;;;;;;4.35;3.40;;;22.80;99.90;;;;;;4972077;28;20082;-57
2021/09/26 02:39:07;;;;;;;4.22;3.78;;;22.80;99.90;;;;;;4972085;28;20474;-58
2021/09/26 02:41:42;;;;;;;4.68;3.70;;;22.80;99.90;;;;;;4972532;28;20030;-58
2021/09/26 02:44:23;;;;;;;4.60;3.97;;;22.80;99.90;;;;;;4972312;28;20038;-57
2021/09/26 02:46:57;;;;;;;5.38;3.60;;;22.80;99.90;;;;;;4971929;28;20082;-58
2021/09/26 02:49:24;;;;;;;4.38;3.70;;;22.80;99.90;;;;;;4972125;28;20070;-58
2021/09/26 02:51:51;;;;;;;4.40;3.90;;;22.80;99.90;;;;;;4971860;28;20550;-58
2021/09/26 02:54:17;;;;;;;4.05;3.63;;;22.80;99.90;;;;;;4971968;28;20066;-58
2021/09/26 02:56:43;;;;;;;4.75;4.25;;;22.70;99.90;;;;;;4971832;28;20027;-58
2021/09/26 02:59:10;;;;;;;5.55;4.22;;;22.70;99.90;;;;;;4972148;28;20054;-59
2021/09/26 03:01:47;;;;;;;4.25;3.85;;;22.70;99.90;;;;;;4971595;28;20034;-58
2021/09/26 03:04:13;;;;;;;4.10;3.58;;;22.70;99.90;;;;;;4971722;28;20113;-58
2021/09/26 03:06:38;;;;;;;4.68;4.10;;;22.70;99.90;;;;;;4971769;28;20058;-58
2021/09/26 03:09:04;;;;;;;5.05;4.22;;;22.70;99.90;;;;;;4972279;28;20030;-58
2021/09/26 03:11:30;;;;;;;4.32;3.80;;;22.70;99.90;;;;;;4972331;28;20023;-58
2021/09/26 03:13:55;;;;;;;5.75;4.00;;;22.70;99.90;;;;;;4974871;28;20045;-58
2021/09/26 03:16:21;;;;;;;4.78;4.03;;;22.70;99.90;;;;;;4975409;28;20081;-58
2021/09/26 03:18:47;;;;;;;4.20;3.80;;;22.70;99.90;;;;;;4975483;28;20034;-58
2021/09/26 03:21:13;;;;;;;4.45;3.97;;;22.80;99.90;;;;;;4975378;28;20023;-58
2021/09/26 03:23:38;;;;;;;4.95;4.10;;;22.70;99.90;;;;;;4975087;28;20027;-59
2021/09/26 03:26:04;;;;;;;4.88;3.95;;;22.70;99.90;;;;;;4975530;28;20041;-58
2021/09/26 03:28:30;;;;;;;4.65;4.15;;;22.70;99.90;;;;;;4975566;28;20106;-58
2021/09/26 03:30:55;;;;;;;4.70;4.18;;;22.70;99.90;;;;;;4974978;28;20049;-59
2021/09/26 03:33:21;;;;;;;5.25;4.00;;;22.70;99.90;;;;;;4975313;28;20379;-58
2021/09/26 03:35:47;;;;;;;4.97;4.20;;;22.70;99.90;;;;;;4974992;28;20531;-58
2021/09/26 03:38:13;;;;;;;4.70;4.20;;;22.70;99.90;;;;;;4975036;28;20483;-58
2021/09/26 03:40:38;;;;;;;3.97;3.60;;;22.70;99.90;;;;;;4974742;28;20398;-57
2021/09/26 03:43:04;;;;;;;4.53;3.80;;;22.70;99.90;;;;;;4975220;28;20027;-58
2021/09/26 03:45:30;;;;;;;4.93;4.22;;;22.70;99.90;;;;;;4975213;28;20109;-58
2021/09/26 03:47:56;;;;;;;4.60;4.07;;;22.70;99.90;;;;;;4974910;28;20430;-58
2021/09/26 03:50:22;;;;;;;4.50;4.10;;;22.70;99.90;;;;;;4974993;28;20054;-58
2021/09/26 03:52:48;;;;;;;4.72;4.13;;;22.70;99.90;;;;;;4974441;28;20387;-57
2021/09/26 03:55:14;;;;;;;5.22;4.57;;;22.70;99.90;;;;;;4975182;28;20038;-59
2021/09/26 03:57:41;;;;;;;4.57;3.97;;;22.70;99.90;;;;;;4974393;28;20026;-58
2021/09/26 04:00:13;;;;;;;5.47;4.28;;;22.70;99.90;;;;;;4974663;28;20070;-58
2021/09/26 04:02:39;;;;;;;4.90;4.13;;;22.70;99.90;;;;;;4974526;28;20027;-58
2021/09/26 04:05:06;;;;;;;4.85;4.20;;;22.70;99.90;;;;;;4974648;28;20034;-58
2021/09/26 04:07:31;;;;;;;5.28;4.60;;;22.70;99.90;;;;;;4974872;28;20023;-58
2021/09/26 04:09:57;;;;;;;5.28;4.03;;;22.70;99.90;;;;;;4974285;28;20027;-58
2021/09/26 04:12:23;;;;;;;4.60;4.00;;;22.70;99.90;;;;;;4974440;28;20027;-58
2021/09/26 04:14:48;;;;;;;6.00;4.45;;;22.70;99.90;;;;;;4974430;28;20065;-58
2021/09/26 04:17:14;;;;;;;4.50;4.07;;;22.70;99.90;;;;;;4974356;28;20027;-58
2021/09/26 04:19:40;;;;;;;6.35;4.32;;;22.70;99.90;;;;;;4974099;28;20479;-58
2021/09/26 04:22:05;;;;;;;5.10;4.40;;;22.70;99.90;;;;;;4974263;28;20491;-58
2021/09/26 04:24:31;;;;;;;4.43;4.03;;;22.70;99.90;;;;;;4974310;28;20062;-58
2021/09/26 04:26:57;;;;;;;5.38;4.22;;;22.70;99.90;;;;;;4974090;28;20029;-58
2021/09/26 04:29:23;;;;;;;4.63;4.05;;;22.70;99.90;;;;;;4974128;28;20049;-58
2021/09/26 04:31:49;;;;;;;4.93;4.43;;;22.70;99.90;;;;;;4973861;28;20428;-58
2021/09/26 04:34:15;;;;;;;6.80;4.07;;;22.70;99.90;;;;;;4956802;28;20089;-60
2021/09/26 04:36:40;;;;;;;5.70;4.50;;;22.70;99.90;;;;;;4973667;28;20102;-58
2021/09/26 04:39:06;;;;;;;5.18;4.68;;;22.70;99.90;;;;;;4974100;28;20031;-58
2021/09/26 04:41:32;;;;;;;5.22;4.40;;;22.70;99.90;;;;;;4974109;28;20031;-58
2021/09/26 04:43:57;;;;;;;4.78;4.25;;;22.70;99.90;;;;;;4973614;28;20034;-58
2021/09/26 04:46:23;;;;;;;4.68;4.20;;;22.60;99.90;;;;;;4956395;28;20030;-59
2021/09/26 04:48:49;;;;;;;5.13;4.53;;;22.70;99.90;;;;;;4973715;28;20057;-59
2021/09/26 04:51:15;;;;;;;5.30;4.57;;;22.60;99.90;;;;;;4973710;28;20463;-58
2021/09/26 04:53:41;;;;;;;4.25;3.85;;;22.70;99.90;;;;;;4973425;28;20046;-58
2021/09/26 04:56:07;;;;;;;4.68;4.22;;;22.70;99.90;;;;;;4973687;28;20027;-58
2021/09/26 04:58:32;;;;;;;5.55;4.53;;;22.60;99.90;;;;;;4973876;28;20041;-59
2021/09/26 05:00:58;;;;;;;5.13;4.13;;;22.60;99.90;;;;;;4973355;28;20030;-58
2021/09/26 05:03:24;;;;;;;5.03;4.22;;;22.70;99.90;;;;;;4973618;28;20480;-58
2021/09/26 05:05:50;;;;;;;4.35;3.88;;;22.60;99.90;;;;;;4973355;28;20081;-58
2021/09/26 05:08:15;;;;;;;4.45;3.88;;;22.70;99.90;;;;;;4955967;28;20031;-59
2021/09/26 05:10:41;;;;;;;4.90;4.40;;;22.60;99.90;;;;;;4973060;28;20022;-57
2021/09/26 05:13:07;;;;;;;9.18;4.55;;;22.60;99.90;;;;;;4973280;28;20035;-58
2021/09/26 05:15:32;;;;;;;4.63;4.20;;;22.60;99.90;;;;;;4973561;28;20035;-58
2021/09/26 05:17:58;;;;;;;4.78;4.20;;;22.60;99.90;;;;;;4972985;28;20466;-58
2021/09/26 05:20:24;;;;;;;4.82;3.90;;;22.60;99.90;;;;;;4973173;28;20101;-57
2021/09/26 05:22:49;;;;;;;4.70;4.20;;;22.60;99.90;;;;;;4972941;28;20376;-58
2021/09/26 05:25:16;;;;;;;4.90;4.10;;;22.60;99.90;;;;;;4972919;28;20038;-58
2021/09/26 05:27:42;;;;;;;4.95;4.43;;;22.60;99.90;;;;;;4955635;28;20044;-58
2021/09/26 05:30:08;;;;;;;4.47;4.03;;;22.60;99.90;;;;;;4973051;28;20035;-58
2021/09/26 05:32:35;;;;;;;4.72;4.28;;;22.60;99.90;;;;;;4973263;28;20019;-58
2021/09/26 05:35:00;;;;;;;4.68;4.00;;;22.60;99.90;;;;;;4972669;28;20035;-62
2021/09/26 05:37:26;;;;;;;4.95;4.47;;;22.60;99.90;;;;;;4972899;28;20385;-58
2021/09/26 05:39:52;;;;;;;4.63;4.20;;;22.60;99.90;;;;;;4972568;28;20109;-58
2021/09/26 05:42:17;;;;;;;5.63;4.55;;;22.60;99.90;;;;;;4972899;28;20025;-58
2021/09/26 05:44:43;;;;;;;4.63;4.00;;;22.60;99.90;;;;;;4972615;28;20092;-62
2021/09/26 05:47:09;;;;;;;4.50;4.10;;;22.60;99.90;;;;;;4972715;28;20022;-58
2021/09/26 05:49:36;;;;;;;4.53;3.97;;;22.60;99.90;;;;;;4973021;28;20054;-58
2021/09/26 05:52:04;;;;;;;5.95;4.47;;;22.50;99.90;;;;;;4972967;28;20030;-58
2021/09/26 05:54:31;;;;;;;5.15;4.38;;;22.60;99.90;;;;;;4972793;28;20043;-58
2021/09/26 05:56:56;;;;;;;5.35;4.38;;;22.60;99.90;;;;;;4972660;28;20407;-58
2021/09/26 05:59:22;;;;;;;4.55;4.15;;;22.60;99.90;;;;;;4972611;28;20098;-58
2021/09/26 06:01:47;;;;;;;4.22;3.65;;;22.60;99.90;;;;;;4972346;28;20025;-58
2021/09/26 06:04:13;;;;;;;4.70;4.22;;;22.50;99.90;;;;;;4973005;28;20037;-57
2021/09/26 06:06:38;;;;;;;5.07;4.03;;;22.50;99.90;;;;;;4972455;28;20464;-58
2021/09/26 06:09:04;;;;;;;4.85;4.20;;;22.50;99.90;;;;;;4972838;28;20043;-58
2021/09/26 06:11:30;;;;;;;4.53;4.13;;;22.50;99.90;;;;;;4972873;28;20150;-58
2021/09/26 06:13:55;;;;;;;4.47;4.07;;;22.50;99.90;;;;;;4972213;28;20045;-59
2021/09/26 06:16:21;;;;;;;4.45;4.05;;;22.50;99.90;;;;;;4972494;28;20019;-58
2021/09/26 06:18:47;;;;;;;4.57;4.05;;;22.50;99.90;;;;;;4972227;28;20037;-59
2021/09/26 06:21:12;;;;;;;4.72;4.25;;;22.50;99.90;;;;;;4972534;28;20034;-58
2021/09/26 06:23:38;;;;;;;5.07;4.57;;;22.50;99.90;;;;;;4972177;28;20034;-59
2021/09/26 06:26:03;;;;;;;4.50;4.10;;;22.50;99.90;;;;;;4972609;28;20034;-63
2021/09/26 06:28:29;;;;;;;4.32;3.92;;;22.50;99.90;;;;;;4972314;28;20078;-58
2021/09/26 06:30:55;;;;;;;4.82;4.20;;;22.50;99.90;;;;;;4972131;28;20359;-58
2021/09/26 06:33:21;;;;;;;5.65;4.70;;;22.50;99.90;;;;;;4972292;28;20081;-58
2021/09/26 06:35:46;;;;;;;5.15;4.20;;;22.50;99.90;;;;;;4972033;28;20390;-58
2021/09/26 06:38:12;;;;;;;4.82;4.20;;;22.50;99.90;;;;;;4972245;28;20027;-59
2021/09/26 06:40:38;;;;;;;5.65;4.28;;;22.50;99.90;;;;;;4972259;28;20026;-58
2021/09/26 06:43:03;;;;;;;5.30;4.50;;;22.50;99.90;;;;;;4972722;28;20054;-58
2021/09/26 06:45:29;;;;;;;5.90;4.63;;;22.50;99.90;;;;;;4972303;28;20027;-58
2021/09/26 06:47:55;;;;;;;6.03;4.75;;;22.50;99.90;;;;;;4973589;28;20505;-62
2021/09/26 06:50:21;;;;;;;5.60;4.38;;;22.50;99.90;;;;;;4976028;28;20033;-58
2021/09/26 06:52:46;;;;;;;4.88;4.30;;;22.50;99.90;;;;;;4975639;28;20110;-58
2021/09/26 06:55:12;;;;;;;6.70;4.18;;;22.50;99.90;;;;;;4975958;28;20070;-58
2021/09/26 06:57:37;;;;;;;5.25;3.88;;;22.50;99.90;;;;;;4975872;28;20026;-58
2021/09/26 07:00:06;;;;;;;4.32;3.88;;;22.50;99.90;;;;;;4976221;28;20489;-58
2021/09/26 07:02:31;;;;;;;4.53;4.07;;;22.50;99.90;;;;;;4958627;28;20030;-58
2021/09/26 07:04:57;;;;;;;4.60;4.20;;;22.50;99.90;;;;;;4975516;28;20027;-58
2021/09/26 07:07:23;;;;;;;4.47;4.05;;;22.50;99.90;;;;;;4975791;28;20026;-58
2021/09/26 07:09:49;;;;;;;5.35;4.40;;;22.50;99.90;;;;;;4975352;28;20022;-58
2021/09/26 07:12:16;;;;;;;6.03;4.40;;;22.50;99.90;;;;;;4975734;28;20102;-58
2021/09/26 07:14:42;;;;;;;4.88;4.38;;;22.50;99.90;;;;;;4975107;28;20097;-59
2021/09/26 07:17:08;;;;;;;4.60;4.15;;;22.50;99.90;;;;;;4975632;28;20023;-58
2021/09/26 07:19:34;;;;;;;12.50;4.45;;;22.50;99.90;;;;;;4975696;28;20150;-59
2021/09/26 07:21:59;;;;;;;5.18;4.68;;;22.50;99.90;;;;;;4975175;28;20037;-58
2021/09/26 07:24:25;;;;;;;5.22;4.70;;;22.40;99.90;;;;;;4975249;28;20023;-58
2021/09/26 07:26:51;;;;;;;7.80;4.25;;;22.40;99.90;;;;;;4975173;28;20406;-58
2021/09/26 07:29:17;;;;;;;4.88;4.45;;;22.40;99.90;;;;;;4975381;28;20027;-58
2021/09/26 07:31:42;;;;;;;5.28;4.55;;;22.40;99.90;;;;;;4974967;28;20117;-59
2021/09/26 07:34:08;;;;;;;7.80;4.50;;;22.50;99.90;;;;;;4975170;28;20121;-58
2021/09/26 07:36:34;;;;;;;4.93;3.72;;;22.40;99.90;;;;;;4975356;28;20033;-57
2021/09/26 07:38:59;;;;;;;4.93;4.43;;;22.40;99.90;;;;;;4974822;28;20026;-58
2021/09/26 07:41:25;;;;;;;4.65;4.10;;;22.50;99.90;;;;;;4975186;28;20031;-58
2021/09/26 07:43:51;;;;;;;4.82;4.38;;;22.40;99.90;;;;;;4974810;28;20126;-58
2021/09/26 07:46:16;;;;;;;4.70;4.30;;;22.40;99.90;;;;;;4975017;28;20364;-59
2021/09/26 07:48:42;;;;;;;7.82;4.57;;;22.50;99.90;;;;;;4974738;28;20033;-58
2021/09/26 07:51:08;;;;;;;4.75;4.28;;;22.40;99.90;;;;;;4974886;28;20046;-58
2021/09/26 07:53:34;;;;;;;5.57;4.30;;;22.50;99.90;;;;;;4975128;28;20101;-59
2021/09/26 07:56:00;;;;;;;4.82;4.32;;;22.50;99.90;;;;;;4974884;28;20419;-58
2021/09/26 07:58:27;;;;;;;5.65;4.65;;;22.50;99.90;;;;;;4974277;28;20031;-58
2021/09/26 08:00:53;;;;;;;4.82;4.32;;;22.40;99.90;;;;;;4974811;28;20061;-58
2021/09/26 08:03:19;;;;;;;6.57;4.40;;;22.40;99.90;;;;;;4974763;28;20030;-58
2021/09/26 08:05:45;;;;;;;9.20;4.18;;;22.40;99.90;;;;;;4971467;28;20574;-64
2021/09/26 08:08:11;;;;;;;5.15;4.43;;;22.50;99.90;;;;;;4973388;28;20038;-58
2021/09/26 08:10:37;;;;;;;5.10;4.60;;;22.40;99.90;;;;;;4973895;28;20114;-59
2021/09/26 08:13:03;;;;;;;5.22;4.13;;;22.40;99.90;;;;;;4957004;28;20042;-60
2021/09/26 08:15:29;;;;;;;4.72;3.95;;;22.50;99.90;;;;;;4974213;28;20022;-62
2021/09/26 08:17:55;;;;;;;11.98;4.75;;;22.50;99.90;;;;;;4974101;28;20134;-58
2021/09/26 08:20:21;;;;;;;5.88;4.25;;;22.40;99.90;;;;;;4972343;28;20109;-59
2021/09/26 08:22:46;;;;;;;5.32;4.30;;;22.40;99.90;;;;;;4973830;28;20105;-58
2021/09/26 08:25:13;;;;;;;5.07;4.45;;;22.40;99.90;;;;;;4974091;28;20039;-58
2021/09/26 08:27:39;;;;;;;4.68;4.22;;;22.40;99.90;;;;;;4956157;28;20438;-58
2021/09/26 08:30:09;;;;;;;5.72;4.40;;;22.40;99.90;;;;;;4973808;28;20034;-58
2021/09/26 08:32:38;;;;;;;12.90;8.23;;;22.40;99.90;;;;;;4972972;28;20035;-58
2021/09/26 08:35:06;;;;;;;14.32;10.77;;;22.40;99.90;;;;;;4972546;28;20039;-58
2021/09/26 08:37:32;;;;;;;13.25;11.88;;;22.40;99.90;;;;;;4955864;28;20023;-64
2021/09/26 08:39:58;;;;;;;15.88;12.63;;;22.40;99.90;;;;;;4971828;28;20050;-59
2021/09/26 08:42:24;;;;;;;15.73;13.90;;;22.40;99.90;;;;;;4972083;28;20062;-59
2021/09/26 08:44:50;;;;;;;14.13;12.57;;;22.30;99.90;;;;;;4972727;28;20109;-58
2021/09/26 08:47:17;;;;;;;13.48;12.07;;;22.30;99.90;;;;;;4973284;28;20027;-63
2021/09/26 08:49:44;;;;;;;17.50;13.13;;;22.30;99.90;;;;;;4971985;28;20035;-59
2021/09/26 08:52:10;;;;;;;16.75;14.15;;;22.30;99.90;;;;;;4972629;28;20034;-61
2021/09/26 08:54:36;;;;;;;16.45;13.55;;;22.20;99.90;;;;;;4972714;28;20058;-63
2021/09/26 08:57:02;;;;;;;15.45;12.98;;;22.20;99.90;;;;;;4973268;28;20042;-62
2021/09/26 08:59:28;;;;;;;15.23;12.98;;;22.20;99.90;;;;;;4972949;28;20062;-60
2021/09/26 09:01:53;;;;;;;16.92;13.57;;;22.20;99.90;;;;;;4973125;28;20069;-63
2021/09/26 09:04:45;;;;;;;17.00;13.60;;;22.10;99.90;;;;;;4955936;28;20110;-62
2021/09/26 09:07:12;;;;;;;16.17;12.80;;;22.10;99.90;;;;;;4969707;28;20072;-61
2021/09/26 09:09:54;;;;;;;16.50;12.73;;;22.00;99.90;;;;;;4972300;28;20050;-67
2021/09/26 09:12:36;;;;;;;14.82;13.15;;;22.00;99.90;;;;;;4973150;28;20026;-60
2021/09/26 09:15:13;;;;;;;15.63;12.73;;;22.00;99.90;;;;;;4973472;28;20041;-59
2021/09/26 09:17:42;;;;;;;14.70;12.15;;;21.90;99.90;;;;;;4959229;28;20047;-59
2021/09/26 09:20:16;;;;;;;15.35;12.98;;;21.90;99.90;;;;;;4972804;28;20026;-62
2021/09/26 09:22:43;;;;;;;;;;;21.90;99.90;;;;;;4969960;28;20027;-65
2021/09/26 09:25:40;;;;;;;13.55;12.07;;;21.90;99.90;;;;;;4973380;28;19920;-63
2021/09/26 09:28:19;;;;;;;16.35;12.45;;;21.80;99.90;;;;;;4971113;28;20031;-62
2021/09/26 09:31:02;;;;;;;16.67;13.63;;;21.80;99.90;;;;;;4939213;28;21396;-71
2021/09/26 09:33:42;;;;;;;16.00;12.68;;;21.80;99.90;;;;;;4970736;28;20039;-63
2021/09/26 09:36:24;;;;;;;17.05;14.10;;;21.80;99.90;;;;;;4971792;28;20109;-71
2021/09/26 09:38:53;;;;;;;17.60;14.00;;;21.70;99.90;;;;;;4970900;28;20018;-67
2021/09/26 09:41:40;;;;;;;18.10;13.70;;;21.70;99.90;;;;;;4971115;28;20114;-60
2021/09/26 09:44:08;;;;;;;15.52;12.85;;;21.70;99.90;;;;;;4971296;28;20475;-59
2021/09/26 09:46:45;;;;;;;15.88;13.57;;;21.70;99.90;;;;;;4971788;28;20030;-59
2021/09/26 09:49:17;;;;;;;16.88;14.07;;;21.60;99.90;;;;;;4970985;28;20508;-68
2021/09/26 09:52:01;;;;;;;16.95;13.98;;;21.60;99.90;;;;;;4977348;28;20070;-72
2021/09/26 09:54:49;;;;;;;15.48;12.57;;;21.60;99.90;;;;;;4976307;28;20034;-65
2021/09/26 09:57:25;;;;;;;17.38;12.65;;;21.60;99.90;;;;;;4971113;28;20109;-63
2021/09/26 09:59:51;;;;;;;15.18;12.80;;;21.60;99.90;;;;;;4971495;28;20042;-64
2021/09/26 10:02:17;;;;;;;16.25;13.23;;;21.60;99.90;;;;;;4970632;28;20427;-62
2021/09/26 10:04:45;;;;;;;16.05;12.85;;;21.60;99.90;;;;;;4954294;28;20019;-59
2021/09/26 10:07:23;;;;;;;14.00;12.48;;;21.60;99.90;;;;;;4972620;28;20111;-61
2021/09/26 10:09:49;;;;;;;16.35;12.50;;;21.60;99.90;;;;;;4972500;28;20026;-66
2021/09/26 10:12:33;;;;;;;14.75;11.75;;;21.60;99.90;;;;;;4972634;28;20035;-61
2021/09/26 10:15:06;;;;;;;15.43;11.52;;;21.50;99.90;;;;;;4972343;28;20483;-63
2021/09/26 10:17:31;;;;;;;12.23;10.73;;;21.50;99.90;;;;;;4972688;28;20118;-59
2021/09/26 10:19:57;;;;;;;13.48;10.93;;;21.50;99.90;;;;;;4971824;28;20153;-63
2021/09/26 10:22:24;;;;;;;12.63;10.60;;;21.50;99.90;;;;;;4975312;28;20057;-60
2021/09/26 10:24:58;;;;;;;13.02;10.82;;;21.50;99.90;;;;;;4976115;28;20611;-68
2021/09/26 10:27:30;;;;;;;12.02;9.93;;;21.50;99.90;;;;;;4975705;28;20457;-61
2021/09/26 10:30:06;;;;;;;12.13;9.63;;;21.50;99.90;;;;;;4973905;28;20035;-59
2021/09/26 10:32:32;;;;;;;11.15;9.95;;;21.50;99.90;;;;;;4975716;28;20387;-61
2021/09/26 10:34:58;;;;;;;9.73;8.73;;;21.50;99.90;;;;;;4975853;28;20038;-64
2021/09/26 10:37:24;;;;;;;12.35;8.77;;;21.50;99.90;;;;;;4975507;28;20471;-59
2021/09/26 10:39:50;;;;;;;13.48;9.88;;;21.50;99.90;;;;;;4974096;28;20033;-59
2021/09/26 10:42:21;;;;;;;12.35;9.80;;;21.50;99.90;;;;;;4974335;28;20030;-60
2021/09/26 10:44:58;;;;;;;25.02;21.00;;;21.50;99.90;;;;;;4973424;28;20081;-60
2021/09/26 10:47:26;;;;;;;14.57;12.55;;;21.50;99.90;;;;;;4974240;28;20142;-58
2021/09/26 10:50:01;;;;;;;12.57;10.07;;;21.50;99.90;;;;;;4973107;28;20090;-59
2021/09/26 10:52:30;;;;;;;12.25;9.40;;;21.50;99.90;;;;;;4973697;28;20030;-59
2021/09/26 10:55:16;;;;;;;11.73;8.35;;;21.50;99.90;;;;;;4954480;28;20043;-59
2021/09/26 10:57:59;;;;;;;13.23;9.38;;;21.50;99.90;;;;;;4972885;28;20475;-59
2021/09/26 11:00:29;;;;;;;21.48;13.43;;;21.50;99.90;;;;;;4974039;28;20027;-64
2021/09/26 11:02:56;;;;;;;16.58;13.40;;;21.50;99.90;;;;;;4974449;28;20019;-61
2021/09/26 11:05:51;;;;;;;16.40;14.23;;;21.50;99.90;;;;;;4974916;28;20061;-59
2021/09/26 11:08:25;;;;;;;14.80;11.05;;;21.50;99.90;;;;;;4973914;28;20501;-62
2021/09/26 11:10:54;;;;;;;12.98;10.40;;;21.50;99.90;;;;;;4975361;28;20026;-60
2021/09/26 11:13:31;;;;;;;12.48;9.00;;;21.50;99.90;;;;;;4975451;28;20034;-61
2021/09/26 11:15:57;;;;;;;9.50;8.10;;;21.50;99.90;;;;;;4975324;28;20050;-58
2021/09/26 11:18:42;;;;;;;8.77;7.45;;;21.50;99.90;;;;;;4975222;28;20177;-61
2021/09/26 11:21:08;;;;;;;9.90;7.05;;;21.50;99.90;;;;;;4975524;28;20031;-59
2021/09/26 11:23:35;;;;;;;7.93;6.57;;;21.50;99.90;;;;;;4975061;28;20394;-62
2021/09/26 11:26:06;;;;;;;7.82;6.80;;;21.60;99.90;;;;;;4974532;28;20037;-62
2021/09/26 11:28:35;;;;;;;8.77;7.32;;;21.60;99.90;;;;;;4973647;28;20027;-60
2021/09/26 11:31:03;;;;;;;7.90;6.43;;;21.60;99.90;;;;;;4971990;28;20031;-60
2021/09/26 11:33:55;;;;;;;7.18;6.47;;;21.60;99.90;;;;;;4973711;28;20398;-60
2021/09/26 11:36:23;;;;;;;7.20;5.93;;;21.60;99.90;;;;;;4975417;28;20102;-64
2021/09/26 11:38:49;;;;;;;9.90;6.47;;;21.60;99.90;;;;;;4974594;28;20491;-60
2021/09/26 11:41:15;;;;;;;6.47;5.60;;;21.60;99.90;;;;;;4975085;28;20034;-59
2021/09/26 11:43:44;;;;;;;7.60;6.22;;;21.60;99.90;;;;;;4974501;28;20035;-64
2021/09/26 11:46:23;;;;;;;7.45;6.22;;;21.60;99.90;;;;;;4974921;28;20049;-60
2021/09/26 11:48:49;;;;;;;7.60;5.97;;;21.60;99.90;;;;;;4973024;28;20085;-60
2021/09/26 11:51:15;;;;;;;6.85;5.53;;;21.60;99.90;;;;;;4957507;28;20072;-60
2021/09/26 11:53:42;;;;;;;8.10;5.63;;;21.60;99.90;;;;;;4973387;28;20046;-61
2021/09/26 11:56:13;;;;;;;7.05;6.15;;;21.60;99.90;;;;;;4974856;28;20030;-61
2021/09/26 11:58:39;;;;;;;7.13;5.65;;;21.60;99.90;;;;;;4974603;28;20069;-61
2021/09/26 12:01:04;;;;;;;7.28;5.93;;;21.70;99.90;;;;;;4974873;28;20026;-61
2021/09/26 12:03:33;;;;;;;6.63;5.78;;;21.70;99.90;;;;;;4975027;28;20031;-62
2021/09/26 12:05:59;;;;;;;8.00;5.70;;;21.70;99.90;;;;;;4974546;28;20027;-61
2021/09/26 12:08:35;;;;;;;8.70;5.78;;;21.70;99.90;;;;;;4973996;28;20035;-64
2021/09/26 12:11:07;;;;;;;8.95;5.93;;;21.70;99.90;;;;;;4974899;28;20048;-62
2021/09/26 12:13:44;;;;;;;8.63;6.10;;;21.70;99.90;;;;;;4956477;28;20492;-60
2021/09/26 12:16:09;;;;;;;7.18;6.18;;;21.70;99.90;;;;;;4974285;28;20550;-66
2021/09/26 12:18:36;;;;;;;7.13;6.43;;;21.70;99.90;;;;;;4972865;28;20054;-60
2021/09/26 12:21:09;;;;;;;8.85;6.07;;;21.70;99.90;;;;;;4974673;28;20019;-64
2021/09/26 12:23:44;;;;;;;6.57;5.88;;;21.70;99.90;;;;;;4973127;28;20059;-61
2021/09/26 12:26:10;;;;;;;7.82;6.40;;;21.70;99.90;;;;;;4974251;28;20042;-60
2021/09/26 12:28:37;;;;;;;8.48;6.32;;;21.70;99.90;;;;;;4974065;28;20441;-61
2021/09/26 12:31:03;;;;;;;6.70;6.00;;;21.80;99.90;;;;;;4954467;28;20480;-59
2021/09/26 12:33:59;;;;;;;6.95;5.75;;;21.80;99.90;;;;;;4973998;28;20166;-63
2021/09/26 12:36:30;;;;;;;6.60;5.22;;;21.80;99.90;;;;;;4969718;28;20070;-60
2021/09/26 12:38:57;;;;;;;6.20;5.10;;;21.80;99.90;;;;;;4970016;28;20037;-60
2021/09/26 12:41:23;;;;;;;5.60;4.75;;;21.80;99.90;;;;;;4972894;28;20031;-64
2021/09/26 12:43:56;;;;;;;5.93;4.80;;;21.80;99.90;;;;;;4973377;28;20029;-60
2021/09/26 12:46:25;;;;;;;4.95;4.40;;;21.80;99.90;;;;;;4973574;28;20023;-60
2021/09/26 12:48:51;;;;;;;5.18;4.57;;;21.80;99.90;;;;;;4973607;28;20031;-61
2021/09/26 12:51:37;;;;;;;5.57;5.07;;;21.80;99.90;;;;;;4973560;28;20019;-64